Terminal Aerodrome Forecast
Issued by NWS

Home | Current Version | Previous Version | Text Only | Print | Product List | Glossary On
Versions: 1 2 3 4 5 6 7 8 9 10 11 12 13
000
FTUS45 KRIW 112300
TAFBPI
TAF
KBPI 112332Z 1200/1224 12010KT P6SM VCSH SCT070 BKN110
     FM120500 VRB06KT P6SM VCSH SCT060 BKN100
     FM120900 VRB06KT P6SM SCT080 BKN150
     FM121200 VRB04KT P6SM FEW150
     FM122200 VRB06KT P6SM VCSH SCT080 BKN150=

USA.gov is the U.S. government's official web portal to all federal, state and local government web resources and services.